createdAt,value
2023-03-11T00:02:59.482Z,9.46
2023-03-11T00:06:02.486Z,9.37
2023-03-11T00:09:05.157Z,9.26
2023-03-11T00:12:07.889Z,9.31
2023-03-11T00:15:10.902Z,9.41
2023-03-11T00:18:13.510Z,9.46
2023-03-11T00:21:17.564Z,9.41
2023-03-11T00:24:20.035Z,9.52
2023-03-11T00:27:22.175Z,9.40
2023-03-11T00:30:25.793Z,9.44
2023-03-11T00:33:28.043Z,9.51
2023-03-11T00:36:33.702Z,9.51
2023-03-11T00:39:35.872Z,9.52
2023-03-11T00:42:38.293Z,9.46
2023-03-11T00:45:40.579Z,9.52
2023-03-11T00:48:43.077Z,9.58
2023-03-11T00:51:45.373Z,9.44
2023-03-11T00:54:47.767Z,9.53
2023-03-11T00:57:55.066Z,9.52
2023-03-11T01:00:57.980Z,9.41
2023-03-11T01:04:00.171Z,9.36
2023-03-11T01:07:03.264Z,9.35
2023-03-11T01:10:07.692Z,9.38
2023-03-11T01:13:10.149Z,9.36
2023-03-11T01:16:12.426Z,9.31
2023-03-11T01:19:15.224Z,9.19
2023-03-11T01:22:17.744Z,9.17
2023-03-11T01:25:22.611Z,9.21
2023-03-11T01:28:26.044Z,9.02
2023-03-11T01:31:28.477Z,9.04
2023-03-11T01:34:30.816Z,8.98
2023-03-11T01:37:34.026Z,9.03
2023-03-11T01:40:46.476Z,9.01
2023-03-11T01:43:54.552Z,8.94
2023-03-11T01:46:59.715Z,8.98
2023-03-11T01:50:05.639Z,8.87
2023-03-11T01:53:09.393Z,8.87
2023-03-11T01:56:13.662Z,8.80
2023-03-11T01:59:21.341Z,8.79
2023-03-11T02:02:48.040Z,8.70
2023-03-11T02:05:53.040Z,8.58
2023-03-11T02:08:55.786Z,8.74
2023-03-11T02:11:58.703Z,8.81
2023-03-11T02:15:02.104Z,8.96
2023-03-11T02:18:06.505Z,9.00
2023-03-11T02:21:29.597Z,8.97
2023-03-11T02:24:46.366Z,9.09
2023-03-11T02:27:51.984Z,9.01
2023-03-11T02:30:56.980Z,8.97
2023-03-11T02:34:02.707Z,8.96
2023-03-11T02:37:08.243Z,8.97
2023-03-11T02:40:30.432Z,8.99
2023-03-11T02:43:42.122Z,8.92
2023-03-11T02:46:45.281Z,8.89
2023-03-11T02:49:48.796Z,9.03
2023-03-11T02:52:51.614Z,9.03
2023-03-11T02:55:54.127Z,9.04
2023-03-11T02:58:56.451Z,9.15
2023-03-11T03:01:58.976Z,9.12
2023-03-11T03:05:01.355Z,9.16
2023-03-11T03:08:04.193Z,9.23
2023-03-11T03:11:06.629Z,9.25
2023-03-11T03:14:09.221Z,9.28
2023-03-11T03:17:11.536Z,9.28
2023-03-11T03:20:14.957Z,9.31
2023-03-11T03:23:18.638Z,9.25
2023-03-11T03:26:21.186Z,9.32
2023-03-11T03:29:23.609Z,9.24
2023-03-11T03:32:26.787Z,9.25
2023-03-11T03:35:29.210Z,9.22
2023-03-11T03:38:32.161Z,9.12
2023-03-11T03:41:34.909Z,9.06
2023-03-11T03:44:38.000Z,9.06
2023-03-11T03:47:41.005Z,9.04
2023-03-11T03:50:43.508Z,8.98
2023-03-11T03:53:47.702Z,8.88
2023-03-11T03:56:50.323Z,8.79
2023-03-11T03:59:52.813Z,8.68
2023-03-11T04:02:55.328Z,8.70
2023-03-11T04:06:11.072Z,8.54
2023-03-11T04:09:14.086Z,8.55
2023-03-11T04:12:17.745Z,8.45
2023-03-11T04:15:20.980Z,8.45
2023-03-11T04:18:23.838Z,8.40
2023-03-11T04:21:26.308Z,8.35
2023-03-11T04:24:29.309Z,8.37
2023-03-11T04:27:31.900Z,8.33
2023-03-11T04:30:35.167Z,8.27
2023-03-11T04:33:37.874Z,8.23
2023-03-11T04:36:41.029Z,8.14
2023-03-11T04:39:43.517Z,8.08
2023-03-11T04:42:46.008Z,8.06
2023-03-11T04:45:50.294Z,7.99
2023-03-11T04:48:52.892Z,7.87
2023-03-11T04:51:55.135Z,7.73
2023-03-11T04:54:57.973Z,7.63
2023-03-11T04:58:00.444Z,7.40
2023-03-11T05:01:03.739Z,7.38
2023-03-11T05:04:06.237Z,7.21
2023-03-11T05:07:08.814Z,7.07
2023-03-11T05:10:11.835Z,7.03
2023-03-11T05:13:14.624Z,6.91
2023-03-11T05:16:17.385Z,6.77
2023-03-11T05:19:34.543Z,6.74
2023-03-11T05:22:37.866Z,6.66
2023-03-11T05:25:40.681Z,6.52
2023-03-11T05:28:43.191Z,6.48
2023-03-11T05:31:47.031Z,6.46
2023-03-11T05:34:49.644Z,6.39
2023-03-11T05:37:53.609Z,6.38
2023-03-11T05:40:56.340Z,6.36
2023-03-11T05:43:59.016Z,6.37
2023-03-11T05:47:01.482Z,6.29
2023-03-11T05:50:05.616Z,6.24
2023-03-11T05:53:08.062Z,6.13
2023-03-11T05:56:10.737Z,6.05
2023-03-11T05:59:16.500Z,6.00
2023-03-11T06:02:21.108Z,5.99
2023-03-11T06:05:24.204Z,5.95
2023-03-11T06:08:26.784Z,5.96
2023-03-11T06:11:30.161Z,5.93
2023-03-11T06:14:35.457Z,5.91
2023-03-11T06:17:38.348Z,5.99
2023-03-11T06:20:40.937Z,6.08
2023-03-11T06:23:43.571Z,6.16
2023-03-11T06:26:46.821Z,6.09
2023-03-11T06:29:54.498Z,6.03
2023-03-11T06:32:57.966Z,6.11
2023-03-11T06:36:05.446Z,6.30
2023-03-11T06:39:08.008Z,6.32
2023-03-11T06:42:11.718Z,6.24
2023-03-11T06:45:14.261Z,6.19
2023-03-11T06:48:17.048Z,6.35
2023-03-11T06:51:21.276Z,6.23
2023-03-11T06:54:24.214Z,6.10
2023-03-11T06:57:27.731Z,5.98
2023-03-11T07:00:31.732Z,5.87
2023-03-11T07:03:34.858Z,5.87
2023-03-11T07:06:37.488Z,5.90
2023-03-11T07:09:41.516Z,6.05
2023-03-11T07:12:46.508Z,6.19
2023-03-11T07:15:48.670Z,6.17
2023-03-11T07:18:52.289Z,5.95
2023-03-11T07:21:54.424Z,5.88
2023-03-11T07:24:56.999Z,6.01
2023-03-11T07:27:59.319Z,5.97
2023-03-11T07:31:10.604Z,5.68
2023-03-11T07:34:13.063Z,5.61
2023-03-11T07:37:15.532Z,5.44
2023-03-11T07:40:17.843Z,5.32
2023-03-11T07:43:20.924Z,5.35
2023-03-11T07:46:24.989Z,5.44
2023-03-11T07:49:27.487Z,5.69
2023-03-11T07:52:31.192Z,5.91
2023-03-11T07:55:33.903Z,6.01
2023-03-11T07:58:36.497Z,5.94
2023-03-11T08:01:41.210Z,6.29
2023-03-11T08:04:43.796Z,6.30
2023-03-11T08:07:46.025Z,6.39
2023-03-11T08:10:48.463Z,6.51
2023-03-11T08:13:50.791Z,6.39
2023-03-11T08:16:53.336Z,6.31
2023-03-11T08:19:55.538Z,6.59
2023-03-11T08:22:58.624Z,6.89
2023-03-11T08:26:05.346Z,7.04
2023-03-11T08:29:07.994Z,7.24
2023-03-11T08:32:10.238Z,6.61
2023-03-11T08:35:12.797Z,7.06
2023-03-11T08:38:15.118Z,7.04
2023-03-11T08:41:18.582Z,6.97
2023-03-11T08:44:20.746Z,6.89
2023-03-11T08:47:23.213Z,6.50
2023-03-11T08:50:25.972Z,6.50
2023-03-11T08:53:28.875Z,6.91
2023-03-11T08:56:31.496Z,6.72
2023-03-11T08:59:33.976Z,6.61
2023-03-11T09:02:36.206Z,7.38
2023-03-11T09:05:39.502Z,7.82
2023-03-11T09:08:42.638Z,7.78
2023-03-11T09:11:45.102Z,7.66
2023-03-11T09:14:47.370Z,8.08
2023-03-11T09:17:49.928Z,7.75
2023-03-11T09:20:52.137Z,7.38
2023-03-11T09:23:54.752Z,7.31
2023-03-11T09:26:56.931Z,7.36
2023-03-11T09:29:59.464Z,7.26
2023-03-11T09:33:01.794Z,6.70
2023-03-11T09:36:04.764Z,6.90
2023-03-11T09:39:07.170Z,7.08
2023-03-11T09:42:23.222Z,6.87
2023-03-11T09:45:29.716Z,6.88
2023-03-11T09:48:48.681Z,6.97
2023-03-11T09:52:10.083Z,7.05
2023-03-11T09:55:47.671Z,7.25
2023-03-11T09:59:00.391Z,7.19
2023-03-11T10:02:05.382Z,7.06
2023-03-11T10:05:21.244Z,6.87
2023-03-11T10:08:32.852Z,7.02
2023-03-11T10:11:45.352Z,7.01
2023-03-11T10:15:09.435Z,7.00
2023-03-11T10:18:26.557Z,6.91
2023-03-11T10:21:41.163Z,6.69
2023-03-11T10:25:03.200Z,6.56
2023-03-11T10:28:12.583Z,6.49
2023-03-11T10:31:54.682Z,6.15
2023-03-11T10:35:15.235Z,5.95
2023-03-11T10:38:22.890Z,5.77
2023-03-11T10:41:45.235Z,5.80
2023-03-11T10:44:47.723Z,5.84
2023-03-11T10:47:50.329Z,5.96
2023-03-11T10:51:04.082Z,6.01
2023-03-11T10:54:06.421Z,5.97
2023-03-11T10:57:32.872Z,6.14
2023-03-11T11:00:35.034Z,7.11
2023-03-11T11:03:42.294Z,8.50
2023-03-11T11:06:44.476Z,9.40
2023-03-11T11:09:46.947Z,9.99
2023-03-11T11:13:08.034Z,9.74
2023-03-11T11:16:16.783Z,10.64
2023-03-11T11:19:19.908Z,10.03
2023-03-11T11:22:23.995Z,9.68
2023-03-11T11:25:43.104Z,9.51
2023-03-11T11:28:45.745Z,9.71
2023-03-11T11:31:48.383Z,8.42
2023-03-11T11:34:58.194Z,8.32
2023-03-11T11:38:02.558Z,8.08
2023-03-11T11:41:08.260Z,7.68
2023-03-11T11:44:17.895Z,8.38
2023-03-11T11:47:26.236Z,7.96
2023-03-11T11:50:43.415Z,7.86
2023-03-11T11:53:55.897Z,7.55
2023-03-11T11:56:58.510Z,7.33
2023-03-11T12:00:03.931Z,7.14
2023-03-11T12:03:33.475Z,7.66
2023-03-11T12:06:42.070Z,7.53
2023-03-11T12:09:50.054Z,8.99
2023-03-11T12:12:58.594Z,10.22
2023-03-11T12:16:18.453Z,11.89
2023-03-11T12:19:43.150Z,10.65
2023-03-11T12:23:02.470Z,9.71
2023-03-11T12:26:18.778Z,9.53
2023-03-11T12:29:36.780Z,8.73
2023-03-11T12:32:49.101Z,9.12
2023-03-11T12:35:57.016Z,9.68
2023-03-11T12:39:06.477Z,11.31
2023-03-11T12:42:18.528Z,12.46
2023-03-11T12:45:53.179Z,11.97
2023-03-11T12:48:58.288Z,13.46
2023-03-11T12:52:01.182Z,13.78
2023-03-11T12:55:03.843Z,11.06
2023-03-11T12:58:45.261Z,9.36
2023-03-11T13:01:56.720Z,8.49
2023-03-11T13:05:21.101Z,8.32
2023-03-11T13:08:33.547Z,8.19
2023-03-11T13:11:42.185Z,8.26
2023-03-11T13:14:44.537Z,8.41
2023-03-11T13:18:12.157Z,9.01
2023-03-11T13:21:32.648Z,10.13
2023-03-11T13:24:35.016Z,10.51
2023-03-11T13:27:42.697Z,10.04
2023-03-11T13:30:56.317Z,9.91
2023-03-11T13:34:14.247Z,9.97
2023-03-11T13:37:29.720Z,9.41
2023-03-11T13:40:33.524Z,9.07
2023-03-11T13:43:44.831Z,9.98
2023-03-11T13:46:55.066Z,9.44
2023-03-11T13:50:14.697Z,8.51
2023-03-11T13:53:25.889Z,7.80
2023-03-11T13:56:32.767Z,7.35
2023-03-11T13:59:35.837Z,6.88
2023-03-11T14:02:38.387Z,7.00
2023-03-11T14:05:46.903Z,7.25
2023-03-11T14:08:57.697Z,6.96
2023-03-11T14:12:10.374Z,6.94
2023-03-11T14:15:26.836Z,6.82
2023-03-11T14:18:38.760Z,6.97
2023-03-11T14:21:51.319Z,7.82
2023-03-11T14:24:53.899Z,8.08
2023-03-11T14:27:59.220Z,8.71
2023-03-11T14:31:03.120Z,8.72
2023-03-11T14:34:17.974Z,8.32
2023-03-11T14:37:39.024Z,7.45
2023-03-11T14:40:42.068Z,7.02
2023-03-11T14:43:48.570Z,6.97
2023-03-11T14:46:52.608Z,6.79
2023-03-11T14:49:55.669Z,6.62
2023-03-11T14:53:02.457Z,6.76
2023-03-11T14:56:12.476Z,6.96
2023-03-11T14:59:28.370Z,7.06
2023-03-11T15:02:50.656Z,6.78
2023-03-11T15:05:56.802Z,7.24
2023-03-11T15:09:15.598Z,7.46
2023-03-11T15:12:43.454Z,7.20
2023-03-11T15:15:56.070Z,7.06
2023-03-11T15:19:29.498Z,6.53
2023-03-11T15:22:38.373Z,6.16
2023-03-11T15:25:49.463Z,5.89
2023-03-11T15:28:58.124Z,5.68
2023-03-11T15:32:20.864Z,5.68
2023-03-11T15:35:23.290Z,5.65
2023-03-11T15:38:28.192Z,5.71
2023-03-11T15:41:30.624Z,5.61
2023-03-11T15:44:37.297Z,5.70
2023-03-11T15:47:40.592Z,5.71
2023-03-11T15:50:57.168Z,5.66
2023-03-11T15:53:59.571Z,5.65
2023-03-11T15:57:04.580Z,5.62
2023-03-11T16:00:16.024Z,5.62
2023-03-11T16:03:19.110Z,5.53
2023-03-11T16:06:24.580Z,5.53
2023-03-11T16:09:27.114Z,5.54
2023-03-11T16:12:29.355Z,5.34
2023-03-11T16:15:38.025Z,5.28
2023-03-11T16:18:40.319Z,5.20
2023-03-11T16:21:46.822Z,5.09
2023-03-11T16:24:52.547Z,5.02
2023-03-11T16:27:56.327Z,4.94
2023-03-11T16:30:58.487Z,4.84
2023-03-11T16:34:00.965Z,4.79
2023-03-11T16:37:03.748Z,4.68
2023-03-11T16:40:07.141Z,4.64
2023-03-11T16:43:13.479Z,4.58
2023-03-11T16:46:16.023Z,4.50
2023-03-11T16:49:18.233Z,4.43
2023-03-11T16:52:21.189Z,4.35
2023-03-11T16:55:25.184Z,4.29
2023-03-11T16:58:27.678Z,4.31
2023-03-11T17:01:30.000Z,4.29
2023-03-11T17:04:33.528Z,4.34
2023-03-11T17:07:38.807Z,4.30
2023-03-11T17:10:44.317Z,4.31
2023-03-11T17:13:46.589Z,4.36
2023-03-11T17:16:49.047Z,4.32
2023-03-11T17:19:51.257Z,4.35
2023-03-11T17:22:53.873Z,4.33
2023-03-11T17:25:55.995Z,4.29
2023-03-11T17:28:59.190Z,4.25
2023-03-11T17:32:03.331Z,4.11
2023-03-11T17:35:06.466Z,4.08
2023-03-11T17:38:08.691Z,3.95
2023-03-11T17:41:13.709Z,3.92
2023-03-11T17:44:16.118Z,3.82
2023-03-11T17:47:19.847Z,3.76
2023-03-11T17:50:22.549Z,3.76
2023-03-11T17:53:25.007Z,3.78
2023-03-11T17:56:27.264Z,3.72
2023-03-11T17:59:29.695Z,3.77
2023-03-11T18:02:32.122Z,3.72
2023-03-11T18:05:36.786Z,3.74
2023-03-11T18:08:39.018Z,3.78
2023-03-11T18:11:41.424Z,3.76
2023-03-11T18:14:43.542Z,3.77
2023-03-11T18:17:47.431Z,3.82
2023-03-11T18:20:49.529Z,3.83
2023-03-11T18:23:54.163Z,3.85
2023-03-11T18:26:56.351Z,3.86
2023-03-11T18:30:00.058Z,3.89
2023-03-11T18:33:02.320Z,3.86
2023-03-11T18:36:19.662Z,3.86
2023-03-11T18:39:21.818Z,3.91
2023-03-11T18:42:24.229Z,3.84
2023-03-11T18:45:26.474Z,3.80
2023-03-11T18:48:29.352Z,3.76
2023-03-11T18:51:32.511Z,3.75
2023-03-11T18:54:35.029Z,3.74
2023-03-11T18:57:37.218Z,3.78
2023-03-11T19:00:39.711Z,3.67
2023-03-11T19:03:43.420Z,3.64
2023-03-11T19:06:45.929Z,3.62
2023-03-11T19:09:49.194Z,3.57
2023-03-11T19:12:51.772Z,3.59
2023-03-11T19:15:53.969Z,3.52
2023-03-11T19:18:56.520Z,3.46
2023-03-11T19:21:58.675Z,3.47
2023-03-11T19:25:01.326Z,3.45
2023-03-11T19:28:03.645Z,3.44
2023-03-11T19:31:06.207Z,3.41
2023-03-11T19:34:08.389Z,3.31
2023-03-11T19:37:10.851Z,3.28
2023-03-11T19:40:13.974Z,3.28
2023-03-11T19:43:17.794Z,3.26
2023-03-11T19:46:21.331Z,3.16
2023-03-11T19:49:23.649Z,3.14
2023-03-11T19:52:25.848Z,3.06
2023-03-11T19:55:28.274Z,2.96
2023-03-11T19:58:31.140Z,2.91
2023-03-11T20:01:33.613Z,2.77
2023-03-11T20:04:36.111Z,2.75
2023-03-11T20:07:38.400Z,2.73
2023-03-11T20:10:42.914Z,2.71
2023-03-11T20:13:45.119Z,2.66
2023-03-11T20:16:47.731Z,2.63
2023-03-11T20:19:50.186Z,2.58
2023-03-11T20:22:52.769Z,2.51
2023-03-11T20:25:54.959Z,2.46
2023-03-11T20:28:57.785Z,2.41
2023-03-11T20:32:00.194Z,2.36
2023-03-11T20:35:03.285Z,2.33
2023-03-11T20:38:05.562Z,2.30
2023-03-11T20:41:09.689Z,2.26
2023-03-11T20:44:14.063Z,2.18
2023-03-11T20:47:16.739Z,2.12
2023-03-11T20:50:19.738Z,2.10
2023-03-11T20:53:22.348Z,2.05
2023-03-11T20:56:26.009Z,2.04
2023-03-11T20:59:28.671Z,1.95
2023-03-11T21:02:33.594Z,1.91
2023-03-11T21:05:37.996Z,1.81
2023-03-11T21:08:40.428Z,1.85
2023-03-11T21:11:42.933Z,1.82
2023-03-11T21:14:45.062Z,1.76
2023-03-11T21:17:47.575Z,1.69
2023-03-11T21:20:49.706Z,1.76
2023-03-11T21:23:52.452Z,1.74
2023-03-11T21:26:54.646Z,1.70
2023-03-11T21:29:59.279Z,1.64
2023-03-11T21:33:01.665Z,1.69
2023-03-11T21:36:05.183Z,1.66
2023-03-11T21:39:08.102Z,1.64
2023-03-11T21:42:10.684Z,1.67
2023-03-11T21:45:13.014Z,1.60
2023-03-11T21:48:15.637Z,1.61
2023-03-11T21:51:23.338Z,1.64
2023-03-11T21:54:26.253Z,1.67
2023-03-11T21:57:28.525Z,1.64
2023-03-11T22:00:31.111Z,1.68
2023-03-11T22:03:35.876Z,1.71
2023-03-11T22:06:38.278Z,1.71
2023-03-11T22:09:40.958Z,1.69
2023-03-11T22:12:43.193Z,1.68
2023-03-11T22:15:46.069Z,1.69
2023-03-11T22:18:48.982Z,1.70
2023-03-11T22:21:51.528Z,1.69
2023-03-11T22:24:53.715Z,1.64
2023-03-11T22:27:56.332Z,1.63
2023-03-11T22:30:58.623Z,1.59
2023-03-11T22:34:01.046Z,1.64
2023-03-11T22:37:03.264Z,1.64
2023-03-11T22:40:10.262Z,1.60
2023-03-11T22:43:13.753Z,1.58
2023-03-11T22:46:16.313Z,1.60
2023-03-11T22:49:18.516Z,1.50
2023-03-11T22:52:21.180Z,1.48
2023-03-11T22:55:23.318Z,1.48
2023-03-11T22:58:25.788Z,1.41
2023-03-11T23:01:28.404Z,1.40
2023-03-11T23:04:31.019Z,1.32
2023-03-11T23:07:33.395Z,1.18
2023-03-11T23:10:35.953Z,1.22
2023-03-11T23:13:40.014Z,1.27
2023-03-11T23:16:42.638Z,1.12
2023-03-11T23:19:44.881Z,1.09
2023-03-11T23:22:47.390Z,1.14
2023-03-11T23:25:49.545Z,1.14
2023-03-11T23:28:52.271Z,1.10
2023-03-11T23:31:54.428Z,1.11
2023-03-11T23:34:57.017Z,1.04
2023-03-11T23:37:59.673Z,1.01
2023-03-11T23:41:06.344Z,1.07
2023-03-11T23:44:08.468Z,1.03
2023-03-11T23:47:11.280Z,1.11
2023-03-11T23:50:13.640Z,1.11
2023-03-11T23:53:17.864Z,1.07
2023-03-11T23:56:20.103Z,1.07
2023-03-11T23:59:22.559Z,1.11
